createdAt,value
2022-07-29T00:00:18.114Z,24.90
2022-07-29T00:01:19.706Z,24.91
2022-07-29T00:02:18.598Z,24.92
2022-07-29T00:03:19.002Z,24.90
2022-07-29T00:04:19.820Z,24.88
2022-07-29T00:05:19.528Z,24.82
2022-07-29T00:06:19.750Z,24.83
2022-07-29T00:07:20.005Z,24.82
2022-07-29T00:08:20.288Z,24.85
2022-07-29T00:09:20.539Z,24.82
2022-07-29T00:10:20.841Z,24.77
2022-07-29T00:11:21.044Z,24.75
2022-07-29T00:12:26.214Z,24.75
2022-07-29T00:13:32.285Z,24.77
2022-07-29T00:14:22.959Z,24.76
2022-07-29T00:15:22.256Z,24.71
2022-07-29T00:16:22.800Z,24.69
2022-07-29T00:17:22.876Z,24.71
2022-07-29T00:18:23.175Z,24.68
2022-07-29T00:19:23.391Z,24.68
2022-07-29T00:20:23.628Z,24.69
2022-07-29T00:21:23.915Z,24.71
2022-07-29T00:22:24.147Z,24.75
2022-07-29T00:23:24.424Z,24.76
2022-07-29T00:24:24.646Z,24.77
2022-07-29T00:25:25.008Z,24.75
2022-07-29T00:26:25.386Z,24.75
2022-07-29T00:27:25.565Z,24.75
2022-07-29T00:28:25.793Z,24.77
2022-07-29T00:29:34.640Z,24.79
2022-07-29T00:30:27.395Z,24.75
2022-07-29T00:31:26.716Z,24.76
2022-07-29T00:32:26.994Z,24.73
2022-07-29T00:33:27.260Z,24.68
2022-07-29T00:34:27.510Z,24.68
2022-07-29T00:35:27.749Z,24.69
2022-07-29T00:36:27.978Z,24.68
2022-07-29T00:37:28.270Z,24.68
2022-07-29T00:38:28.538Z,24.63
2022-07-29T00:39:28.768Z,24.63
2022-07-29T00:40:29.045Z,24.61
2022-07-29T00:41:29.289Z,24.60
2022-07-29T00:42:29.538Z,24.53
2022-07-29T00:43:29.846Z,24.52
2022-07-29T00:44:30.114Z,24.52
2022-07-29T00:45:30.434Z,24.49
2022-07-29T00:46:30.740Z,24.47
2022-07-29T00:47:31.013Z,24.49
2022-07-29T00:48:31.278Z,24.54
2022-07-29T00:49:31.578Z,24.53
2022-07-29T00:50:31.786Z,24.56
2022-07-29T00:51:32.178Z,24.54
2022-07-29T00:52:32.433Z,24.53
2022-07-29T00:53:32.687Z,24.54
2022-07-29T00:54:32.900Z,24.54
2022-07-29T00:55:33.129Z,24.53
2022-07-29T00:56:33.467Z,24.52
2022-07-29T00:57:33.728Z,24.52
2022-07-29T00:58:34.006Z,24.50
2022-07-29T00:59:35.258Z,24.44
2022-07-29T01:00:34.556Z,24.47
2022-07-29T01:01:34.961Z,24.45
2022-07-29T01:02:35.139Z,24.39
2022-07-29T01:03:35.403Z,24.39
2022-07-29T01:04:35.752Z,24.32
2022-07-29T01:05:48.528Z,24.26
2022-07-29T01:06:37.355Z,24.17
2022-07-29T01:07:36.748Z,24.10
2022-07-29T01:08:37.056Z,24.05
2022-07-29T01:09:46.192Z,24.04
2022-07-29T01:10:38.626Z,23.92
2022-07-29T01:11:37.870Z,23.94
2022-07-29T01:12:38.214Z,23.89
2022-07-29T01:13:38.443Z,23.83
2022-07-29T01:14:38.739Z,23.79
2022-07-29T01:15:39.037Z,23.75
2022-07-29T01:16:40.456Z,23.77
2022-07-29T01:17:39.598Z,23.75
2022-07-29T01:18:40.892Z,23.70
2022-07-29T01:19:40.157Z,23.68
2022-07-29T01:20:40.517Z,23.65
2022-07-29T01:21:40.839Z,23.64
2022-07-29T01:22:41.108Z,23.62
2022-07-29T01:23:41.574Z,23.61
2022-07-29T01:24:42.328Z,23.61
2022-07-29T01:25:41.994Z,23.58
2022-07-29T01:26:42.321Z,23.50
2022-07-29T01:27:43.042Z,23.46
2022-07-29T01:28:42.833Z,23.40
2022-07-29T01:29:43.107Z,23.34
2022-07-29T01:30:43.319Z,23.29
2022-07-29T01:31:49.152Z,23.24
2022-07-29T01:32:45.355Z,23.20
2022-07-29T01:33:44.150Z,23.17
2022-07-29T01:34:44.434Z,23.14
2022-07-29T01:35:44.715Z,23.15
2022-07-29T01:36:45.014Z,23.17
2022-07-29T01:37:45.261Z,23.14
2022-07-29T01:38:45.497Z,23.14
2022-07-29T01:39:45.853Z,23.15
2022-07-29T01:40:46.077Z,23.12
2022-07-29T01:41:46.398Z,23.14
2022-07-29T01:42:46.747Z,23.08
2022-07-29T01:43:47.141Z,23.02
2022-07-29T01:44:47.369Z,23.02
2022-07-29T01:45:48.295Z,22.97
2022-07-29T01:46:48.030Z,22.94
2022-07-29T01:47:48.181Z,22.92
2022-07-29T01:48:48.669Z,22.90
2022-07-29T01:49:48.833Z,22.89
2022-07-29T01:50:49.150Z,22.89
2022-07-29T01:51:49.440Z,22.87
2022-07-29T01:52:49.649Z,22.87
2022-07-29T01:53:49.940Z,22.87
2022-07-29T01:54:50.170Z,22.86
2022-07-29T01:55:50.595Z,22.86
2022-07-29T01:56:50.839Z,22.84
2022-07-29T01:57:51.287Z,22.80
2022-07-29T01:58:51.428Z,22.72
2022-07-29T01:59:51.845Z,22.71
2022-07-29T02:00:52.168Z,22.74
2022-07-29T02:01:54.517Z,22.74
2022-07-29T02:02:52.666Z,22.72
2022-07-29T02:03:53.025Z,22.71
2022-07-29T02:04:53.300Z,22.71
2022-07-29T02:05:53.531Z,22.69
2022-07-29T02:06:53.798Z,22.71
2022-07-29T02:07:54.001Z,22.69
2022-07-29T02:08:54.283Z,22.67
2022-07-29T02:09:54.530Z,22.57
2022-07-29T02:10:54.776Z,22.56
2022-07-29T02:11:55.083Z,22.53
2022-07-29T02:12:55.435Z,22.53
2022-07-29T02:13:55.717Z,22.56
2022-07-29T02:14:56.100Z,22.53
2022-07-29T02:15:56.454Z,22.49
2022-07-29T02:16:56.801Z,22.44
2022-07-29T02:17:57.054Z,22.44
2022-07-29T02:18:57.430Z,22.46
2022-07-29T02:19:57.670Z,22.46
2022-07-29T02:20:57.883Z,22.47
2022-07-29T02:21:58.110Z,22.47
2022-07-29T02:22:58.410Z,22.43
2022-07-29T02:23:58.719Z,22.41
2022-07-29T02:24:58.998Z,22.39
2022-07-29T02:25:59.322Z,22.38
2022-07-29T02:26:59.551Z,22.37
2022-07-29T02:27:59.792Z,22.35
2022-07-29T02:29:00.963Z,22.32
2022-07-29T02:30:00.477Z,22.29
2022-07-29T02:31:00.856Z,22.22
2022-07-29T02:32:00.958Z,22.25
2022-07-29T02:33:01.224Z,22.23
2022-07-29T02:34:01.560Z,22.22
2022-07-29T02:35:01.746Z,22.22
2022-07-29T02:36:02.065Z,22.19
2022-07-29T02:37:02.372Z,22.16
2022-07-29T02:38:02.707Z,22.17
2022-07-29T02:39:02.919Z,22.19
2022-07-29T02:40:03.218Z,22.20
2022-07-29T02:41:03.571Z,22.20
2022-07-29T02:42:03.850Z,22.17
2022-07-29T02:43:04.154Z,22.17
2022-07-29T02:44:04.382Z,22.19
2022-07-29T02:45:04.754Z,22.20
2022-07-29T02:46:05.087Z,22.22
2022-07-29T02:47:06.350Z,22.22
2022-07-29T02:48:05.627Z,22.17
2022-07-29T02:49:05.912Z,22.16
2022-07-29T02:50:06.260Z,22.12
2022-07-29T02:51:06.479Z,22.12
2022-07-29T02:52:06.796Z,22.09
2022-07-29T02:53:07.113Z,22.09
2022-07-29T02:54:08.151Z,22.07
2022-07-29T02:55:07.729Z,22.09
2022-07-29T02:56:07.917Z,22.09
2022-07-29T02:57:08.234Z,22.06
2022-07-29T02:58:08.435Z,22.07
2022-07-29T02:59:08.787Z,22.06
2022-07-29T03:00:09.032Z,22.04
2022-07-29T03:01:09.321Z,22.04
2022-07-29T03:02:09.626Z,22.04
2022-07-29T03:03:09.929Z,22.06
2022-07-29T03:04:10.254Z,22.04
2022-07-29T03:05:10.629Z,22.07
2022-07-29T03:06:10.842Z,22.02
2022-07-29T03:07:12.148Z,21.99
2022-07-29T03:08:11.469Z,21.95
2022-07-29T03:09:13.582Z,21.95
2022-07-29T03:10:13.741Z,21.94
2022-07-29T03:11:12.305Z,21.94
2022-07-29T03:12:12.637Z,21.92
2022-07-29T03:13:12.981Z,21.91
2022-07-29T03:14:13.639Z,21.92
2022-07-29T03:15:13.566Z,21.91
2022-07-29T03:16:13.801Z,21.90
2022-07-29T03:17:14.127Z,21.85
2022-07-29T03:18:14.407Z,21.88
2022-07-29T03:19:14.648Z,21.88
2022-07-29T03:20:14.987Z,21.90
2022-07-29T03:21:15.356Z,21.92
2022-07-29T03:22:15.699Z,21.91
2022-07-29T03:23:15.912Z,21.88
2022-07-29T03:24:16.561Z,21.83
2022-07-29T03:25:16.406Z,21.83
2022-07-29T03:26:16.808Z,21.82
2022-07-29T03:27:17.114Z,21.85
2022-07-29T03:28:18.264Z,21.85
2022-07-29T03:29:17.641Z,21.83
2022-07-29T03:30:18.299Z,21.82
2022-07-29T03:31:18.351Z,21.82
2022-07-29T03:32:23.770Z,21.81
2022-07-29T03:33:19.910Z,21.76
2022-07-29T03:34:19.294Z,21.75
2022-07-29T03:35:19.459Z,21.74
2022-07-29T03:36:19.681Z,21.71
2022-07-29T03:37:19.897Z,21.76
2022-07-29T03:38:20.276Z,21.78
2022-07-29T03:39:20.581Z,21.79
2022-07-29T03:40:21.813Z,21.82
2022-07-29T03:41:22.523Z,21.83
2022-07-29T03:42:21.590Z,21.81
2022-07-29T03:43:21.797Z,21.82
2022-07-29T03:44:22.172Z,21.83
2022-07-29T03:45:22.309Z,21.83
2022-07-29T03:46:22.585Z,21.79
2022-07-29T03:47:22.837Z,21.81
2022-07-29T03:48:23.186Z,21.75
2022-07-29T03:49:23.555Z,21.72
2022-07-29T03:50:23.754Z,21.74
2022-07-29T03:51:33.897Z,21.75
2022-07-29T03:52:25.241Z,21.71
2022-07-29T03:53:24.575Z,21.72
2022-07-29T03:54:24.800Z,21.71
2022-07-29T03:55:25.147Z,21.72
2022-07-29T03:56:25.366Z,21.74
2022-07-29T03:57:25.762Z,21.78
2022-07-29T03:58:25.895Z,21.79
2022-07-29T03:59:26.158Z,21.81
2022-07-29T04:00:26.421Z,21.85
2022-07-29T04:01:26.737Z,21.85
2022-07-29T04:02:30.555Z,21.85
2022-07-29T04:03:27.301Z,21.88
2022-07-29T04:04:27.553Z,21.94
2022-07-29T04:05:27.800Z,21.95
2022-07-29T04:06:28.085Z,21.99
2022-07-29T04:07:28.344Z,22.01
2022-07-29T04:08:28.609Z,22.02
2022-07-29T04:09:28.870Z,22.02
2022-07-29T04:10:30.342Z,22.01
2022-07-29T04:11:29.467Z,22.06
2022-07-29T04:12:29.736Z,22.07
2022-07-29T04:13:29.982Z,22.06
2022-07-29T04:14:30.247Z,22.09
2022-07-29T04:15:31.230Z,22.04
2022-07-29T04:16:30.861Z,22.04
2022-07-29T04:17:31.172Z,22.06
2022-07-29T04:18:31.406Z,22.06
2022-07-29T04:19:31.708Z,22.09
2022-07-29T04:20:31.927Z,22.07
2022-07-29T04:21:32.171Z,22.06
2022-07-29T04:22:32.444Z,22.06
2022-07-29T04:23:32.725Z,22.02
2022-07-29T04:24:33.012Z,22.07
2022-07-29T04:25:33.325Z,22.06
2022-07-29T04:26:33.636Z,22.06
2022-07-29T04:27:33.906Z,22.02
2022-07-29T04:28:34.174Z,21.99
2022-07-29T04:29:34.439Z,22.01
2022-07-29T04:30:34.710Z,21.98
2022-07-29T04:31:35.132Z,22.01
2022-07-29T04:32:35.263Z,22.04
2022-07-29T04:33:35.544Z,22.04
2022-07-29T04:34:35.808Z,22.04
2022-07-29T04:35:38.401Z,22.06
2022-07-29T04:36:36.318Z,22.10
2022-07-29T04:37:36.593Z,22.10
2022-07-29T04:38:36.847Z,22.13
2022-07-29T04:39:37.164Z,22.14
2022-07-29T04:40:38.643Z,22.13
2022-07-29T04:41:37.712Z,22.16
2022-07-29T04:42:46.204Z,22.16
2022-07-29T04:43:39.221Z,22.17
2022-07-29T04:44:39.644Z,22.20
2022-07-29T04:45:38.860Z,22.20
2022-07-29T04:46:39.293Z,22.19
2022-07-29T04:47:39.535Z,22.25
2022-07-29T04:48:39.788Z,22.25
2022-07-29T04:49:40.040Z,22.25
2022-07-29T04:50:40.271Z,22.27
2022-07-29T04:51:40.506Z,22.25
2022-07-29T04:52:40.871Z,22.23
2022-07-29T04:53:41.123Z,22.25
2022-07-29T04:54:41.369Z,22.27
2022-07-29T04:55:41.656Z,22.25
2022-07-29T04:56:41.897Z,22.29
2022-07-29T04:57:42.168Z,22.27
2022-07-29T04:58:42.487Z,22.27
2022-07-29T04:59:42.825Z,22.28
2022-07-29T05:00:43.070Z,22.27
2022-07-29T05:01:43.423Z,22.25
2022-07-29T05:02:43.795Z,22.28
2022-07-29T05:03:43.984Z,22.31
2022-07-29T05:04:44.201Z,22.31
2022-07-29T05:05:44.522Z,22.29
2022-07-29T05:06:44.724Z,22.32
2022-07-29T05:07:45.015Z,22.31
2022-07-29T05:08:45.271Z,22.28
2022-07-29T05:09:45.548Z,22.32
2022-07-29T05:10:45.782Z,22.32
2022-07-29T05:11:46.087Z,22.35
2022-07-29T05:12:46.317Z,22.39
2022-07-29T05:13:47.101Z,22.41
2022-07-29T05:14:47.774Z,22.39
2022-07-29T05:15:47.324Z,22.41
2022-07-29T05:16:47.533Z,22.41
2022-07-29T05:17:47.830Z,22.43
2022-07-29T05:18:48.011Z,22.46
2022-07-29T05:19:48.377Z,22.49
2022-07-29T05:20:48.611Z,22.52
2022-07-29T05:21:48.925Z,22.53
2022-07-29T05:22:50.077Z,22.53
2022-07-29T05:23:49.552Z,22.56
2022-07-29T05:24:49.895Z,22.57
2022-07-29T05:25:50.063Z,22.62
2022-07-29T05:26:50.394Z,22.65
2022-07-29T05:27:50.981Z,22.64
2022-07-29T05:28:50.971Z,22.68
2022-07-29T05:29:51.243Z,22.65
2022-07-29T05:30:51.470Z,22.71
2022-07-29T05:31:51.704Z,22.74
2022-07-29T05:32:51.949Z,22.78
2022-07-29T05:33:52.267Z,22.80
2022-07-29T05:34:52.518Z,22.84
2022-07-29T05:35:55.285Z,22.82
2022-07-29T05:36:53.027Z,22.82
2022-07-29T05:37:53.373Z,22.83
2022-07-29T05:38:53.734Z,22.87
2022-07-29T05:39:57.221Z,22.90
2022-07-29T05:40:55.188Z,22.93
2022-07-29T05:41:54.515Z,22.87
2022-07-29T05:42:54.871Z,22.86
2022-07-29T05:43:54.953Z,22.87
2022-07-29T05:44:55.530Z,22.92
2022-07-29T05:45:55.482Z,22.94
2022-07-29T05:46:55.758Z,23.01
2022-07-29T05:47:56.061Z,23.01
2022-07-29T05:48:56.373Z,23.02
2022-07-29T05:49:56.546Z,23.02
2022-07-29T05:50:56.848Z,23.09
2022-07-29T05:51:57.175Z,23.12
2022-07-29T05:52:57.477Z,23.19
2022-07-29T05:53:57.656Z,23.20
2022-07-29T05:54:57.913Z,23.23
2022-07-29T05:55:58.153Z,23.26
2022-07-29T05:56:58.402Z,23.29
2022-07-29T05:57:58.681Z,23.27
2022-07-29T05:58:58.901Z,23.29
2022-07-29T05:59:59.319Z,23.35
2022-07-29T06:00:59.610Z,23.32
2022-07-29T06:02:00.372Z,23.38
2022-07-29T06:03:00.101Z,23.43
2022-07-29T06:04:00.374Z,23.45
2022-07-29T06:05:00.632Z,23.49
2022-07-29T06:06:00.936Z,23.55
2022-07-29T06:07:01.161Z,23.53
2022-07-29T06:08:01.483Z,23.58
2022-07-29T06:09:01.777Z,23.55
2022-07-29T06:10:02.981Z,23.58
2022-07-29T06:11:02.223Z,23.58
2022-07-29T06:12:02.502Z,23.65
2022-07-29T06:13:02.787Z,23.68
2022-07-29T06:14:03.010Z,23.60
2022-07-29T06:15:03.287Z,23.62
2022-07-29T06:16:03.562Z,23.65
2022-07-29T06:17:03.844Z,23.71
2022-07-29T06:18:04.080Z,23.72
2022-07-29T06:19:04.377Z,23.67
2022-07-29T06:20:07.444Z,23.52
2022-07-29T06:21:04.960Z,23.57
2022-07-29T06:22:05.310Z,23.53
2022-07-29T06:23:05.527Z,23.57
2022-07-29T06:24:05.779Z,23.46
2022-07-29T06:25:06.131Z,23.40
2022-07-29T06:26:06.367Z,23.43
2022-07-29T06:27:06.640Z,23.49
2022-07-29T06:28:06.896Z,23.35
2022-07-29T06:29:07.145Z,23.34
2022-07-29T06:30:07.402Z,23.46
2022-07-29T06:31:07.779Z,23.58
2022-07-29T06:32:08.089Z,23.64
2022-07-29T06:33:08.328Z,23.71
2022-07-29T06:34:08.642Z,23.80
2022-07-29T06:35:39.148Z,23.80
2022-07-29T06:36:10.278Z,23.85
2022-07-29T06:37:11.247Z,23.79
2022-07-29T06:38:31.557Z,23.76
2022-07-29T06:39:12.186Z,23.82
2022-07-29T06:40:10.359Z,23.86
2022-07-29T06:41:11.912Z,23.89
2022-07-29T06:42:10.908Z,24.00
2022-07-29T06:43:11.286Z,24.07
2022-07-29T06:44:12.642Z,24.10
2022-07-29T06:45:11.753Z,24.20
2022-07-29T06:46:12.605Z,24.29
2022-07-29T06:47:12.466Z,24.32
2022-07-29T06:48:12.574Z,24.37
2022-07-29T06:49:12.891Z,24.49
2022-07-29T06:50:13.074Z,24.56
2022-07-29T06:51:13.315Z,24.57
2022-07-29T06:52:13.557Z,24.63
2022-07-29T06:53:13.834Z,24.73
2022-07-29T06:54:14.213Z,24.75
2022-07-29T06:55:24.808Z,24.76
2022-07-29T06:56:15.651Z,24.77
2022-07-29T06:57:14.927Z,24.68
2022-07-29T06:58:15.154Z,24.57
2022-07-29T06:59:15.442Z,24.61
2022-07-29T07:00:15.866Z,24.67
2022-07-29T07:01:16.044Z,24.56
2022-07-29T07:02:16.308Z,24.49
2022-07-29T07:03:16.572Z,24.54
2022-07-29T07:04:17.157Z,24.49
2022-07-29T07:05:17.161Z,24.44
2022-07-29T07:06:17.411Z,24.39
2022-07-29T07:07:17.654Z,24.35
2022-07-29T07:08:17.936Z,24.45
2022-07-29T07:09:18.207Z,24.59
2022-07-29T07:10:18.502Z,24.60
2022-07-29T07:11:19.051Z,24.57
2022-07-29T07:12:18.977Z,24.57
2022-07-29T07:13:19.219Z,24.59
2022-07-29T07:14:19.989Z,24.67
2022-07-29T07:15:19.739Z,24.79
2022-07-29T07:16:20.134Z,24.79
2022-07-29T07:17:20.449Z,24.76
2022-07-29T07:18:20.580Z,24.76
2022-07-29T07:19:20.832Z,24.69
2022-07-29T07:20:21.131Z,24.69
2022-07-29T07:21:21.506Z,24.73
2022-07-29T07:22:21.621Z,24.82
2022-07-29T07:23:21.888Z,24.80
2022-07-29T07:24:22.162Z,24.91
2022-07-29T07:25:22.385Z,25.01
2022-07-29T07:26:22.802Z,25.15
2022-07-29T07:27:23.123Z,25.25
2022-07-29T07:28:24.875Z,25.28
2022-07-29T07:29:23.591Z,25.31
2022-07-29T07:30:23.908Z,25.25
2022-07-29T07:31:24.196Z,25.27
2022-07-29T07:32:24.482Z,25.34
2022-07-29T07:33:24.721Z,25.27
2022-07-29T07:34:29.328Z,25.19
2022-07-29T07:35:25.342Z,25.19
2022-07-29T07:36:25.823Z,25.32
2022-07-29T07:37:25.868Z,25.42
2022-07-29T07:38:26.176Z,25.38
2022-07-29T07:39:26.431Z,25.31
2022-07-29T07:40:26.654Z,25.34
2022-07-29T07:41:27.011Z,25.37
2022-07-29T07:42:28.330Z,25.37
2022-07-29T07:43:28.602Z,25.31
2022-07-29T07:44:27.907Z,25.42
2022-07-29T07:45:28.160Z,25.34
2022-07-29T07:46:28.458Z,25.37
2022-07-29T07:47:28.729Z,25.27
2022-07-29T07:48:28.984Z,25.25
2022-07-29T07:49:29.343Z,25.30
2022-07-29T07:50:29.603Z,25.34
2022-07-29T07:51:29.834Z,25.43
2022-07-29T07:52:30.097Z,25.43
2022-07-29T07:53:30.342Z,25.24
2022-07-29T07:54:30.641Z,25.00
2022-07-29T07:55:47.500Z,24.75
2022-07-29T07:56:35.278Z,24.50
2022-07-29T07:57:31.428Z,24.67
2022-07-29T07:58:31.702Z,24.82
2022-07-29T07:59:31.989Z,24.95
2022-07-29T08:00:32.311Z,24.76
2022-07-29T08:01:48.153Z,24.47
2022-07-29T08:02:33.792Z,24.45
2022-07-29T08:03:33.109Z,24.57
2022-07-29T08:04:33.374Z,24.71
2022-07-29T08:05:33.605Z,24.85
2022-07-29T08:06:33.863Z,24.91
2022-07-29T08:07:34.222Z,24.91
2022-07-29T08:08:34.468Z,24.88
2022-07-29T08:09:34.690Z,24.90
2022-07-29T08:10:34.952Z,24.92
2022-07-29T08:11:35.307Z,25.00
2022-07-29T08:12:35.521Z,25.12
2022-07-29T08:13:35.782Z,25.16
2022-07-29T08:14:36.098Z,25.31
2022-07-29T08:15:36.336Z,25.38
2022-07-29T08:16:36.631Z,25.44
2022-07-29T08:17:36.896Z,25.49
2022-07-29T08:18:37.156Z,25.39
2022-07-29T08:19:37.454Z,25.19
2022-07-29T08:20:37.700Z,24.98
2022-07-29T08:21:38.014Z,24.83
2022-07-29T08:22:38.284Z,24.85
2022-07-29T08:23:47.272Z,24.95
2022-07-29T08:24:39.851Z,25.12
2022-07-29T08:25:40.255Z,25.31
2022-07-29T08:26:39.453Z,25.56
2022-07-29T08:27:43.989Z,25.82
2022-07-29T08:28:40.008Z,26.24
2022-07-29T08:29:40.272Z,26.55
2022-07-29T08:30:40.527Z,26.73
2022-07-29T08:31:40.859Z,26.81
2022-07-29T08:32:53.701Z,26.86
2022-07-29T08:33:43.297Z,26.87
2022-07-29T08:34:41.666Z,26.67
2022-07-29T08:35:41.973Z,26.57
2022-07-29T08:36:42.288Z,26.81
2022-07-29T08:37:42.496Z,26.86
2022-07-29T08:38:42.813Z,27.16
2022-07-29T08:39:43.106Z,27.35
2022-07-29T08:40:43.434Z,27.41
2022-07-29T08:41:57.288Z,27.64
2022-07-29T08:42:44.924Z,27.64
2022-07-29T08:43:44.180Z,27.84
2022-07-29T08:44:44.491Z,28.07
2022-07-29T08:45:47.724Z,27.92
2022-07-29T08:46:44.969Z,27.96
2022-07-29T08:47:45.255Z,27.62
2022-07-29T08:48:45.612Z,27.38
2022-07-29T08:49:45.961Z,27.21
2022-07-29T08:50:46.515Z,27.29
2022-07-29T08:51:49.233Z,27.26
2022-07-29T08:52:47.594Z,27.69
2022-07-29T08:53:46.857Z,28.32
2022-07-29T08:54:47.162Z,28.85
2022-07-29T08:55:47.370Z,28.97
2022-07-29T08:56:47.644Z,29.19
2022-07-29T08:57:51.916Z,29.43
2022-07-29T08:58:51.974Z,29.38
2022-07-29T08:59:48.436Z,29.15
2022-07-29T09:00:48.723Z,28.77
2022-07-29T09:01:49.085Z,28.59
2022-07-29T09:02:49.269Z,28.21
2022-07-29T09:03:49.649Z,27.84
2022-07-29T09:04:49.752Z,27.70
2022-07-29T09:05:50.050Z,27.64
2022-07-29T09:06:50.264Z,27.50
2022-07-29T09:07:50.604Z,27.47
2022-07-29T09:08:50.815Z,27.85
2022-07-29T09:09:51.044Z,28.38
2022-07-29T09:10:51.372Z,28.77
2022-07-29T09:11:52.118Z,29.13
2022-07-29T09:12:51.872Z,29.18
2022-07-29T09:13:52.164Z,29.11
2022-07-29T09:14:52.386Z,29.45
2022-07-29T09:15:52.702Z,30.02
2022-07-29T09:16:53.982Z,30.53
2022-07-29T09:17:53.241Z,30.91
2022-07-29T09:18:53.549Z,31.33
2022-07-29T09:19:54.740Z,31.48
2022-07-29T09:20:54.049Z,31.18
2022-07-29T09:21:54.303Z,30.94
2022-07-29T09:22:54.581Z,30.29
2022-07-29T09:23:54.809Z,30.71
2022-07-29T09:24:55.097Z,31.20
2022-07-29T09:25:55.370Z,31.48
2022-07-29T09:26:56.066Z,31.46
2022-07-29T09:27:55.950Z,31.79
2022-07-29T09:28:56.250Z,31.80
2022-07-29T09:29:56.529Z,32.00
2022-07-29T09:30:56.771Z,32.44
2022-07-29T09:31:57.254Z,32.77
2022-07-29T09:32:57.369Z,33.19
2022-07-29T09:33:57.675Z,33.57
2022-07-29T09:34:58.515Z,33.20
2022-07-29T09:35:58.315Z,33.19
2022-07-29T09:36:58.918Z,33.26
2022-07-29T09:37:58.863Z,32.93
2022-07-29T09:38:59.117Z,32.91
2022-07-29T09:39:59.386Z,33.42
2022-07-29T09:40:59.837Z,33.92
2022-07-29T09:42:00.924Z,33.20
2022-07-29T09:43:00.228Z,32.32
2022-07-29T09:44:00.523Z,32.42
2022-07-29T09:45:00.800Z,32.22
2022-07-29T09:46:01.156Z,32.43
2022-07-29T09:47:01.370Z,32.69
2022-07-29T09:48:01.732Z,33.07
2022-07-29T09:49:01.979Z,33.30
2022-07-29T09:50:02.208Z,32.95
2022-07-29T09:51:02.579Z,32.74
2022-07-29T09:52:02.876Z,32.88
2022-07-29T09:53:03.129Z,32.48
2022-07-29T09:54:03.342Z,32.33
2022-07-29T09:55:03.579Z,31.67
2022-07-29T09:56:03.866Z,31.40
2022-07-29T09:57:04.369Z,31.57
2022-07-29T09:58:04.421Z,31.15
2022-07-29T09:59:04.757Z,30.62
2022-07-29T10:00:05.127Z,30.16
2022-07-29T10:01:05.312Z,30.30
2022-07-29T10:02:05.574Z,31.08
2022-07-29T10:03:05.883Z,31.87
2022-07-29T10:04:06.244Z,32.29
2022-07-29T10:05:06.400Z,32.62
2022-07-29T10:06:06.732Z,32.40
2022-07-29T10:07:06.972Z,31.28
2022-07-29T10:08:07.264Z,30.59
2022-07-29T10:09:07.542Z,30.07
2022-07-29T10:10:07.791Z,29.65
2022-07-29T10:11:08.075Z,29.49
2022-07-29T10:12:08.322Z,29.44
2022-07-29T10:13:12.216Z,28.95
2022-07-29T10:14:09.872Z,29.65
2022-07-29T10:15:09.190Z,30.80
2022-07-29T10:16:09.531Z,31.65
2022-07-29T10:17:09.758Z,31.95
2022-07-29T10:18:10.144Z,32.27
2022-07-29T10:19:10.320Z,32.86
2022-07-29T10:20:14.816Z,33.26
2022-07-29T10:21:35.074Z,33.79
2022-07-29T10:22:12.208Z,33.92
2022-07-29T10:23:11.475Z,33.92
2022-07-29T10:24:14.696Z,33.97
2022-07-29T10:25:12.063Z,34.11
2022-07-29T10:26:12.310Z,33.83
2022-07-29T10:27:12.578Z,34.09
2022-07-29T10:28:16.276Z,34.26
2022-07-29T10:29:13.146Z,33.67
2022-07-29T10:30:13.427Z,33.17
2022-07-29T10:31:13.803Z,32.85
2022-07-29T10:32:14.033Z,32.70
2022-07-29T10:33:14.267Z,32.24
2022-07-29T10:34:14.550Z,31.82
2022-07-29T10:35:14.850Z,31.43
2022-07-29T10:36:15.073Z,31.01
2022-07-29T10:37:15.363Z,30.80
2022-07-29T10:38:17.293Z,30.47
2022-07-29T10:39:15.925Z,30.34
2022-07-29T10:40:16.138Z,30.15
2022-07-29T10:41:19.380Z,30.11
2022-07-29T10:42:19.872Z,30.02
2022-07-29T10:43:16.928Z,29.45
2022-07-29T10:44:19.108Z,29.15
2022-07-29T10:45:17.577Z,28.88
2022-07-29T10:46:17.949Z,29.00
2022-07-29T10:47:18.221Z,29.18
2022-07-29T10:48:18.503Z,29.22
2022-07-29T10:49:18.921Z,29.31
2022-07-29T10:50:19.264Z,29.38
2022-07-29T10:51:19.420Z,29.40
2022-07-29T10:52:19.804Z,29.28
2022-07-29T10:53:20.036Z,29.35
2022-07-29T10:54:20.243Z,29.38
2022-07-29T10:55:20.603Z,29.37
2022-07-29T10:56:20.832Z,29.22
2022-07-29T10:57:21.270Z,29.18
2022-07-29T10:58:21.390Z,29.38
2022-07-29T10:59:22.787Z,29.37
2022-07-29T11:00:22.009Z,29.47
2022-07-29T11:01:37.761Z,29.63
2022-07-29T11:02:41.531Z,29.77
2022-07-29T11:03:23.977Z,29.79
2022-07-29T11:04:23.218Z,29.92
2022-07-29T11:05:23.590Z,30.07
2022-07-29T11:06:27.057Z,30.23
2022-07-29T11:07:24.219Z,30.37
2022-07-29T11:08:26.332Z,30.02
2022-07-29T11:09:34.863Z,30.40
2022-07-29T11:10:26.988Z,30.65
2022-07-29T11:11:29.870Z,31.21
2022-07-29T11:12:25.615Z,30.91
2022-07-29T11:13:25.828Z,31.53
2022-07-29T11:14:26.380Z,32.15
2022-07-29T11:15:28.574Z,32.15
2022-07-29T11:16:27.700Z,32.48
2022-07-29T11:17:26.968Z,32.43
2022-07-29T11:18:27.283Z,32.07
2022-07-29T11:19:30.653Z,32.27
2022-07-29T11:20:27.765Z,32.17
2022-07-29T11:21:28.003Z,32.79
2022-07-29T11:22:29.272Z,33.19
2022-07-29T11:23:33.997Z,33.17
2022-07-29T11:24:30.385Z,33.51
2022-07-29T11:25:42.778Z,33.57
2022-07-29T11:26:30.517Z,33.52
2022-07-29T11:27:29.692Z,33.63
2022-07-29T11:28:29.955Z,33.39
2022-07-29T11:29:30.309Z,33.39
2022-07-29T11:30:30.581Z,33.30
2022-07-29T11:31:30.882Z,33.46
2022-07-29T11:32:31.153Z,33.67
2022-07-29T11:33:54.500Z,33.98
2022-07-29T11:34:32.757Z,33.86
2022-07-29T11:35:38.577Z,34.09
2022-07-29T11:36:33.380Z,33.90
2022-07-29T11:37:33.138Z,33.97
2022-07-29T11:38:33.807Z,34.26
2022-07-29T11:39:36.460Z,34.29
2022-07-29T11:40:33.384Z,34.81
2022-07-29T11:41:33.697Z,35.11
2022-07-29T11:42:35.275Z,35.18
2022-07-29T11:43:34.207Z,35.55
2022-07-29T11:44:34.453Z,35.67
2022-07-29T11:45:41.606Z,35.57
2022-07-29T11:46:36.183Z,35.45
2022-07-29T11:47:38.298Z,34.98
2022-07-29T11:48:35.734Z,34.39
2022-07-29T11:49:35.993Z,33.85
2022-07-29T11:50:36.339Z,33.08
2022-07-29T11:51:36.562Z,32.95
2022-07-29T11:52:38.114Z,32.49
2022-07-29T11:53:38.062Z,31.80
2022-07-29T11:54:38.852Z,31.43
2022-07-29T11:55:38.581Z,30.78
2022-07-29T11:56:38.872Z,30.75
2022-07-29T11:57:38.239Z,30.57
2022-07-29T11:58:39.487Z,30.50
2022-07-29T11:59:38.689Z,30.26
2022-07-29T12:00:38.965Z,30.14
2022-07-29T12:01:39.217Z,29.90
2022-07-29T12:02:40.892Z,29.96
2022-07-29T12:03:39.827Z,29.96
2022-07-29T12:04:40.087Z,30.11
2022-07-29T12:05:48.070Z,30.34
2022-07-29T12:06:41.636Z,30.62
2022-07-29T12:07:47.125Z,30.71
2022-07-29T12:08:41.175Z,30.46
2022-07-29T12:09:41.708Z,30.11
2022-07-29T12:10:41.681Z,30.27
2022-07-29T12:11:41.987Z,30.23
2022-07-29T12:12:42.390Z,30.19
2022-07-29T12:13:42.643Z,30.26
2022-07-29T12:14:43.015Z,30.14
2022-07-29T12:15:47.063Z,30.33
2022-07-29T12:16:43.558Z,30.61
2022-07-29T12:17:43.849Z,30.71
2022-07-29T12:18:44.237Z,30.96
2022-07-29T12:19:44.561Z,31.17
2022-07-29T12:20:44.763Z,31.33
2022-07-29T12:21:52.391Z,31.35
2022-07-29T12:22:46.312Z,31.30
2022-07-29T12:23:45.554Z,31.02
2022-07-29T12:24:45.957Z,30.90
2022-07-29T12:25:49.677Z,30.53
2022-07-29T12:26:46.471Z,30.38
2022-07-29T12:27:46.792Z,30.43
2022-07-29T12:28:47.145Z,30.62
2022-07-29T12:29:48.893Z,30.83
2022-07-29T12:30:47.667Z,30.86
2022-07-29T12:31:47.982Z,30.83
2022-07-29T12:32:48.238Z,30.99
2022-07-29T12:33:48.618Z,30.91
2022-07-29T12:34:48.897Z,31.01
2022-07-29T12:36:03.452Z,30.68
2022-07-29T12:36:50.361Z,30.71
2022-07-29T12:37:49.633Z,30.75
2022-07-29T12:38:49.904Z,30.86
2022-07-29T12:39:50.194Z,30.94
2022-07-29T12:40:50.499Z,31.06
2022-07-29T12:41:50.695Z,31.15
2022-07-29T12:42:50.982Z,31.11
2022-07-29T12:43:51.258Z,31.11
2022-07-29T12:44:51.555Z,31.15
2022-07-29T12:45:51.799Z,31.24
2022-07-29T12:46:52.188Z,31.31
2022-07-29T12:47:52.280Z,31.27
2022-07-29T12:48:52.679Z,31.23
2022-07-29T12:49:52.838Z,31.26
2022-07-29T12:50:53.066Z,31.35
2022-07-29T12:51:53.320Z,31.31
2022-07-29T12:52:53.585Z,31.24
2022-07-29T12:53:53.890Z,31.21
2022-07-29T12:54:54.139Z,31.06
2022-07-29T12:55:54.405Z,31.04